createdAt,value
2023-04-18T00:00:11.096Z,79.40
2023-04-18T00:01:11.078Z,79.37
2023-04-18T00:02:11.221Z,79.41
2023-04-18T00:03:11.336Z,79.50
2023-04-18T00:04:11.508Z,79.53
2023-04-18T00:05:11.152Z,79.66
2023-04-18T00:06:11.074Z,80.67
2023-04-18T00:07:11.115Z,80.38
2023-04-18T00:08:11.072Z,79.87
2023-04-18T00:09:11.196Z,79.63
2023-04-18T00:10:11.071Z,79.57
2023-04-18T00:11:11.081Z,79.49
2023-04-18T00:12:11.082Z,79.11
2023-04-18T00:13:11.076Z,79.28
2023-04-18T00:14:11.229Z,79.71
2023-04-18T00:15:12.072Z,80.00
2023-04-18T00:16:11.074Z,79.94
2023-04-18T00:17:12.215Z,79.79
2023-04-18T00:18:11.081Z,79.59
2023-04-18T00:19:11.071Z,79.48
2023-04-18T00:20:11.125Z,80.08
2023-04-18T00:21:11.099Z,79.92
2023-04-18T00:22:11.074Z,79.66
2023-04-18T00:23:12.846Z,79.56
2023-04-18T00:24:11.089Z,79.41
2023-04-18T00:25:11.086Z,79.18
2023-04-18T00:26:11.084Z,79.21
2023-04-18T00:27:11.072Z,79.00
2023-04-18T00:28:11.076Z,78.93
2023-04-18T00:29:11.089Z,78.83
2023-04-18T00:30:11.077Z,78.67
2023-04-18T00:31:11.155Z,78.63
2023-04-18T00:32:11.084Z,78.60
2023-04-18T00:33:11.098Z,78.47
2023-04-18T00:34:11.178Z,78.35
2023-04-18T00:35:11.082Z,78.35
2023-04-18T00:36:11.078Z,78.27
2023-04-18T00:37:11.070Z,78.30
2023-04-18T00:38:11.078Z,78.19
2023-04-18T00:39:11.075Z,78.20
2023-04-18T00:40:11.076Z,78.13
2023-04-18T00:41:11.076Z,78.10
2023-04-18T00:42:11.084Z,78.18
2023-04-18T00:43:12.076Z,78.27
2023-04-18T00:44:11.238Z,78.29
2023-04-18T00:45:11.076Z,78.24
2023-04-18T00:46:11.188Z,78.12
2023-04-18T00:47:11.078Z,78.17
2023-04-18T00:48:11.086Z,78.17
2023-04-18T00:49:11.096Z,77.82
2023-04-18T00:50:11.097Z,77.78
2023-04-18T00:51:11.094Z,77.70
2023-04-18T00:52:11.080Z,77.71
2023-04-18T00:53:11.114Z,77.56
2023-04-18T00:54:11.161Z,77.49
2023-04-18T00:55:11.073Z,77.59
2023-04-18T00:56:11.079Z,77.52
2023-04-18T00:57:11.084Z,77.61
2023-04-18T00:58:11.075Z,77.74
2023-04-18T00:59:11.096Z,77.94
2023-04-18T01:00:13.082Z,77.77
2023-04-18T01:01:11.093Z,77.72
2023-04-18T01:02:11.107Z,78.59
2023-04-18T01:04:09.384Z,78.57
2023-04-18T01:04:13.672Z,78.39
2023-04-18T01:05:11.094Z,78.49
2023-04-18T01:06:11.059Z,78.42
2023-04-18T01:07:11.068Z,78.64
2023-04-18T01:08:11.066Z,78.57
2023-04-18T01:09:11.063Z,78.05
2023-04-18T01:10:11.067Z,77.74
2023-04-18T01:11:11.065Z,77.71
2023-04-18T01:12:11.058Z,77.63
2023-04-18T01:13:19.078Z,77.65
2023-04-18T01:14:11.221Z,77.63
2023-04-18T01:15:11.062Z,77.47
2023-04-18T01:16:11.088Z,77.47
2023-04-18T01:17:11.066Z,77.45
2023-04-18T01:18:11.068Z,77.45
2023-04-18T01:19:11.064Z,77.69
2023-04-18T01:20:11.072Z,77.59
2023-04-18T01:21:11.057Z,78.00
2023-04-18T01:22:11.063Z,77.92
2023-04-18T01:25:13.021Z,77.94
2023-04-18T01:31:13.100Z,77.87
2023-04-18T01:32:11.062Z,78.07
2023-04-18T01:33:11.086Z,77.90
2023-04-18T01:34:11.183Z,77.92
2023-04-18T01:35:11.062Z,77.97
2023-04-18T01:36:11.061Z,77.92
2023-04-18T01:37:11.063Z,77.99
2023-04-18T01:38:11.063Z,77.84
2023-04-18T01:39:11.067Z,77.63
2023-04-18T01:40:11.063Z,77.70
2023-04-18T01:41:11.064Z,77.70
2023-04-18T01:42:11.062Z,78.16
2023-04-18T01:43:11.067Z,78.00
2023-04-18T01:44:11.119Z,78.34
2023-04-18T01:45:11.062Z,78.37
2023-04-18T01:46:11.074Z,78.33
2023-04-18T01:47:11.060Z,78.22
2023-04-18T01:48:11.063Z,78.31
2023-04-18T01:49:11.063Z,78.41
2023-04-18T01:50:11.078Z,78.39
2023-04-18T01:51:11.062Z,78.28
2023-04-18T01:52:11.082Z,78.28
2023-04-18T01:53:11.065Z,78.25
2023-04-18T01:54:11.150Z,78.18
2023-04-18T01:55:11.086Z,78.33
2023-04-18T01:56:11.063Z,78.43
2023-04-18T01:57:12.064Z,78.59
2023-04-18T01:58:11.083Z,78.58
2023-04-18T01:59:11.068Z,78.51
2023-04-18T02:00:11.065Z,78.55
2023-04-18T02:01:11.115Z,78.58
2023-04-18T02:02:11.173Z,78.75
2023-04-18T02:03:11.281Z,78.72
2023-04-18T02:04:11.237Z,78.89
2023-04-18T02:05:11.086Z,79.02
2023-04-18T02:06:11.061Z,79.35
2023-04-18T02:07:11.105Z,79.46
2023-04-18T02:08:11.083Z,79.56
2023-04-18T02:09:11.072Z,79.82
2023-04-18T02:10:11.076Z,79.88
2023-04-18T02:11:11.080Z,79.96
2023-04-18T02:12:11.063Z,79.76
2023-04-18T02:13:11.072Z,79.77
2023-04-18T02:14:11.109Z,79.99
2023-04-18T02:15:11.066Z,80.07
2023-04-18T02:16:13.098Z,80.05
2023-04-18T02:17:11.070Z,80.11
2023-04-18T02:18:11.068Z,80.40
2023-04-18T02:19:11.071Z,80.23
2023-04-18T02:20:12.079Z,80.14
2023-04-18T02:21:11.091Z,80.16
2023-04-18T02:22:11.066Z,80.13
2023-04-18T02:23:11.071Z,80.25
2023-04-18T02:24:11.222Z,80.51
2023-04-18T02:25:11.070Z,80.72
2023-04-18T02:26:11.096Z,80.46
2023-04-18T02:27:11.084Z,80.42
2023-04-18T02:28:11.067Z,80.42
2023-04-18T02:29:11.064Z,80.56
2023-04-18T02:30:11.087Z,80.68
2023-04-18T02:31:11.071Z,80.90
2023-04-18T02:32:11.108Z,80.77
2023-04-18T02:33:11.071Z,80.75
2023-04-18T02:34:11.214Z,80.85
2023-04-18T02:35:11.073Z,80.93
2023-04-18T02:36:11.069Z,80.80
2023-04-18T02:37:11.074Z,80.67
2023-04-18T02:38:11.070Z,80.94
2023-04-18T02:39:11.071Z,80.94
2023-04-18T02:40:11.076Z,80.75
2023-04-18T02:41:11.072Z,80.72
2023-04-18T02:42:11.071Z,80.60
2023-04-18T02:43:11.074Z,80.64
2023-04-18T02:44:11.347Z,80.49
2023-04-18T02:45:11.070Z,80.73
2023-04-18T02:46:11.165Z,80.75
2023-04-18T02:47:11.069Z,80.83
2023-04-18T02:48:11.101Z,80.84
2023-04-18T02:49:11.079Z,81.01
2023-04-18T02:50:11.084Z,81.05
2023-04-18T02:51:11.065Z,81.37
2023-04-18T02:52:11.078Z,81.42
2023-04-18T02:53:11.069Z,81.56
2023-04-18T02:54:11.158Z,81.64
2023-04-18T02:55:11.067Z,81.43
2023-04-18T02:56:11.070Z,81.71
2023-04-18T02:57:11.079Z,81.68
2023-04-18T02:58:11.075Z,81.87
2023-04-18T02:59:11.083Z,81.70
2023-04-18T03:00:11.067Z,81.62
2023-04-18T03:01:11.118Z,81.95
2023-04-18T03:02:11.100Z,81.73
2023-04-18T03:03:11.130Z,81.79
2023-04-18T03:04:11.149Z,81.83
2023-04-18T03:05:11.103Z,82.03
2023-04-18T03:06:11.071Z,82.92
2023-04-18T03:07:11.072Z,82.76
2023-04-18T03:08:11.085Z,82.95
2023-04-18T03:09:11.078Z,83.36
2023-04-18T03:10:11.081Z,83.24
2023-04-18T03:11:11.080Z,83.22
2023-04-18T03:12:11.075Z,83.32
2023-04-18T03:13:11.071Z,83.31
2023-04-18T03:14:11.185Z,83.13
2023-04-18T03:15:11.078Z,83.13
2023-04-18T03:16:11.122Z,83.24
2023-04-18T03:17:11.071Z,82.81
2023-04-18T03:18:11.081Z,82.67
2023-04-18T03:19:11.073Z,82.50
2023-04-18T03:20:11.085Z,82.34
2023-04-18T03:21:11.079Z,82.44
2023-04-18T03:22:11.074Z,82.28
2023-04-18T03:23:11.074Z,82.21
2023-04-18T03:24:12.224Z,82.18
2023-04-18T03:25:11.075Z,82.00
2023-04-18T03:26:11.075Z,81.99
2023-04-18T03:27:11.074Z,82.01
2023-04-18T03:28:11.071Z,81.92
2023-04-18T03:29:11.073Z,82.06
2023-04-18T03:30:11.074Z,82.42
2023-04-18T03:31:11.089Z,82.43
2023-04-18T03:32:11.068Z,82.49
2023-04-18T03:33:11.073Z,82.35
2023-04-18T03:34:11.142Z,82.13
2023-04-18T03:35:11.081Z,82.22
2023-04-18T03:36:11.070Z,82.37
2023-04-18T03:37:11.073Z,82.08
2023-04-18T03:38:11.072Z,82.05
2023-04-18T03:39:11.072Z,82.20
2023-04-18T03:40:11.084Z,82.32
2023-04-18T03:41:11.071Z,82.34
2023-04-18T03:42:11.075Z,82.33
2023-04-18T03:43:11.086Z,82.22
2023-04-18T03:44:11.266Z,82.44
2023-04-18T03:45:11.073Z,82.35
2023-04-18T03:46:11.163Z,82.27
2023-04-18T03:47:11.071Z,82.17
2023-04-18T03:48:11.104Z,82.27
2023-04-18T03:49:11.096Z,82.39
2023-04-18T03:50:11.074Z,82.42
2023-04-18T03:51:11.074Z,82.33
2023-04-18T03:52:11.098Z,82.35
2023-04-18T03:53:11.083Z,82.30
2023-04-18T03:54:11.191Z,82.33
2023-04-18T03:55:11.083Z,82.54
2023-04-18T03:56:11.072Z,82.60
2023-04-18T03:57:11.079Z,82.76
2023-04-18T03:58:11.082Z,82.58
2023-04-18T03:59:11.085Z,82.42
2023-04-18T04:00:11.091Z,82.43
2023-04-18T04:01:11.073Z,82.80
2023-04-18T04:02:11.145Z,82.82
2023-04-18T04:03:11.372Z,83.20
2023-04-18T04:04:11.182Z,83.54
2023-04-18T04:05:11.158Z,83.44
2023-04-18T04:06:11.064Z,83.38
2023-04-18T04:07:11.081Z,83.38
2023-04-18T04:08:11.061Z,83.36
2023-04-18T04:09:11.075Z,83.26
2023-04-18T04:10:11.070Z,83.20
2023-04-18T04:11:11.066Z,82.94
2023-04-18T04:12:11.066Z,83.30
2023-04-18T04:13:11.066Z,83.21
2023-04-18T04:14:11.132Z,83.14
2023-04-18T04:15:11.060Z,83.22
2023-04-18T04:16:11.145Z,83.27
2023-04-18T04:17:11.064Z,84.03
2023-04-18T04:18:11.091Z,83.63
2023-04-18T04:19:11.072Z,83.41
2023-04-18T04:20:11.071Z,83.29
2023-04-18T04:21:11.060Z,83.36
2023-04-18T04:22:11.080Z,83.20
2023-04-18T04:23:11.066Z,83.14
2023-04-18T04:24:11.087Z,83.19
2023-04-18T04:25:11.076Z,83.15
2023-04-18T04:26:11.072Z,83.05
2023-04-18T04:27:11.066Z,83.11
2023-04-18T04:28:11.072Z,83.18
2023-04-18T04:29:11.071Z,82.88
2023-04-18T04:30:13.216Z,82.80
2023-04-18T04:31:14.065Z,83.03
2023-04-18T04:32:11.112Z,82.92
2023-04-18T04:33:11.062Z,83.00
2023-04-18T04:34:11.063Z,83.13
2023-04-18T04:35:11.072Z,83.16
2023-04-18T04:36:11.061Z,83.25
2023-04-18T04:37:11.061Z,83.29
2023-04-18T04:38:11.070Z,83.33
2023-04-18T04:39:11.063Z,83.54
2023-04-18T04:40:11.059Z,83.45
2023-04-18T04:41:11.070Z,83.55
2023-04-18T04:42:11.062Z,83.27
2023-04-18T04:43:11.061Z,83.50
2023-04-18T04:44:11.092Z,83.77
2023-04-18T04:45:12.065Z,84.43
2023-04-18T04:46:11.074Z,84.64
2023-04-18T04:47:11.058Z,85.39
2023-04-18T04:48:11.075Z,85.06
2023-04-18T04:49:12.071Z,85.60
2023-04-18T04:50:11.063Z,85.72
2023-04-18T04:51:11.074Z,85.82
2023-04-18T04:52:11.061Z,85.44
2023-04-18T04:53:11.065Z,85.37
2023-04-18T04:54:11.133Z,84.93
2023-04-18T04:55:11.070Z,84.71
2023-04-18T04:56:11.110Z,85.06
2023-04-18T04:57:11.071Z,85.37
2023-04-18T04:58:11.065Z,84.88
2023-04-18T04:59:11.060Z,84.46
2023-04-18T05:00:11.086Z,84.26
2023-04-18T05:01:11.089Z,84.38
2023-04-18T05:02:11.162Z,84.77
2023-04-18T05:03:11.210Z,84.89
2023-04-18T05:04:11.151Z,84.93
2023-04-18T05:05:11.064Z,85.35
2023-04-18T05:06:11.075Z,84.94
2023-04-18T05:07:11.066Z,85.28
2023-04-18T05:08:11.064Z,85.39
2023-04-18T05:09:11.070Z,85.46
2023-04-18T05:10:11.072Z,85.70
2023-04-18T05:11:11.063Z,85.52
2023-04-18T05:12:11.065Z,85.22
2023-04-18T05:13:11.077Z,84.89
2023-04-18T05:14:11.069Z,84.96
2023-04-18T05:15:11.064Z,84.76
2023-04-18T05:16:11.140Z,84.65
2023-04-18T05:17:11.067Z,84.35
2023-04-18T05:18:11.063Z,84.57
2023-04-18T05:19:11.070Z,84.69
2023-04-18T05:20:11.065Z,84.35
2023-04-18T05:21:11.064Z,84.07
2023-04-18T05:22:11.068Z,84.10
2023-04-18T05:23:11.111Z,84.16
2023-04-18T05:24:11.088Z,84.23
2023-04-18T05:25:11.106Z,84.34
2023-04-18T05:26:11.109Z,84.25
2023-04-18T05:27:11.093Z,84.01
2023-04-18T05:28:12.099Z,84.10
2023-04-18T05:29:11.085Z,84.13
2023-04-18T05:30:11.087Z,84.17
2023-04-18T05:31:11.119Z,84.06
2023-04-18T05:32:11.090Z,84.31
2023-04-18T05:33:11.130Z,84.64
2023-04-18T05:34:11.138Z,84.73
2023-04-18T05:35:11.082Z,84.58
2023-04-18T05:36:11.072Z,84.50
2023-04-18T05:37:11.067Z,84.45
2023-04-18T05:38:11.073Z,84.16
2023-04-18T05:39:11.075Z,84.00
2023-04-18T05:40:11.069Z,84.03
2023-04-18T05:41:11.088Z,84.04
2023-04-18T05:42:11.072Z,83.92
2023-04-18T05:43:11.070Z,83.80
2023-04-18T05:44:11.071Z,83.63
2023-04-18T05:45:11.071Z,83.46
2023-04-18T05:46:11.108Z,83.52
2023-04-18T05:47:11.072Z,83.37
2023-04-18T05:48:11.169Z,83.22
2023-04-18T05:49:11.073Z,82.85
2023-04-18T05:50:11.086Z,82.89
2023-04-18T05:51:11.718Z,82.65
2023-04-18T05:52:11.072Z,82.50
2023-04-18T05:53:11.085Z,82.42
2023-04-18T05:54:11.142Z,82.39
2023-04-18T05:55:11.070Z,82.32
2023-04-18T05:56:11.086Z,82.23
2023-04-18T05:57:11.080Z,82.23
2023-04-18T05:58:11.073Z,82.04
2023-04-18T05:59:11.069Z,82.14
2023-04-18T06:00:11.084Z,82.23
2023-04-18T06:01:11.076Z,82.18
2023-04-18T06:02:14.146Z,81.99
2023-04-18T06:03:11.689Z,81.64
2023-04-18T06:04:11.200Z,81.81
2023-04-18T06:05:11.336Z,81.61
2023-04-18T06:06:11.074Z,81.42
2023-04-18T06:07:11.081Z,81.35
2023-04-18T06:08:11.071Z,81.29
2023-04-18T06:09:11.085Z,81.31
2023-04-18T06:10:13.092Z,81.44
2023-04-18T06:11:11.075Z,81.72
2023-04-18T06:12:11.071Z,81.61
2023-04-18T06:13:11.080Z,81.61
2023-04-18T06:14:11.107Z,81.59
2023-04-18T06:15:11.071Z,81.47
2023-04-18T06:16:11.114Z,81.37
2023-04-18T06:17:11.076Z,81.21
2023-04-18T06:18:11.076Z,81.17
2023-04-18T06:19:11.077Z,81.07
2023-04-18T06:20:11.115Z,81.22
2023-04-18T06:21:11.074Z,81.15
2023-04-18T06:22:11.077Z,81.03
2023-04-18T06:23:11.082Z,81.13
2023-04-18T06:24:11.076Z,80.94
2023-04-18T06:25:11.083Z,80.90
2023-04-18T06:26:11.081Z,80.78
2023-04-18T06:27:17.698Z,80.58
2023-04-18T06:28:13.084Z,80.56
2023-04-18T06:29:11.077Z,80.26
2023-04-18T06:30:11.071Z,81.09
2023-04-18T06:31:11.102Z,81.17
2023-04-18T06:32:11.073Z,80.78
2023-04-18T06:33:11.096Z,80.41
2023-04-18T06:34:11.091Z,80.31
2023-04-18T06:35:11.074Z,80.46
2023-04-18T06:36:11.078Z,80.17
2023-04-18T06:37:11.079Z,80.40
2023-04-18T06:38:12.078Z,80.19
2023-04-18T06:39:11.084Z,80.14
2023-04-18T06:40:13.076Z,79.96
2023-04-18T06:41:11.078Z,79.95
2023-04-18T06:42:11.083Z,79.86
2023-04-18T06:43:11.078Z,80.30
2023-04-18T06:44:11.106Z,80.15
2023-04-18T06:45:11.080Z,80.06
2023-04-18T06:46:11.108Z,80.11
2023-04-18T06:47:11.082Z,80.07
2023-04-18T06:48:11.077Z,79.79
2023-04-18T06:49:11.159Z,79.63
2023-04-18T06:50:11.077Z,79.58
2023-04-18T06:51:11.081Z,79.61
2023-04-18T06:52:11.076Z,79.44
2023-04-18T06:53:11.077Z,78.99
2023-04-18T06:54:11.076Z,78.61
2023-04-18T06:55:11.081Z,78.61
2023-04-18T06:56:11.091Z,78.60
2023-04-18T06:57:11.110Z,78.63
2023-04-18T06:58:11.078Z,78.57
2023-04-18T06:59:11.170Z,78.53
2023-04-18T07:00:11.077Z,78.34
2023-04-18T07:01:11.129Z,77.97
2023-04-18T07:02:11.115Z,77.82
2023-04-18T07:03:13.614Z,77.77
2023-04-18T07:04:11.201Z,77.74
2023-04-18T07:05:11.132Z,77.58
2023-04-18T07:06:11.123Z,77.48
2023-04-18T07:07:11.081Z,77.43
2023-04-18T07:08:11.065Z,77.45
2023-04-18T07:09:11.073Z,77.25
2023-04-18T07:10:11.072Z,76.93
2023-04-18T07:11:11.064Z,76.43
2023-04-18T07:12:11.058Z,76.39
2023-04-18T07:13:11.058Z,76.32
2023-04-18T07:14:11.080Z,76.13
2023-04-18T07:15:11.059Z,75.88
2023-04-18T07:16:11.069Z,75.88
2023-04-18T07:17:11.138Z,76.02
2023-04-18T07:18:11.062Z,75.99
2023-04-18T07:19:11.060Z,76.03
2023-04-18T07:20:12.304Z,75.97
2023-04-18T07:21:12.061Z,75.78
2023-04-18T07:22:11.065Z,75.72
2023-04-18T07:23:11.062Z,75.93
2023-04-18T07:24:11.119Z,75.81
2023-04-18T07:25:11.060Z,75.74
2023-04-18T07:26:11.061Z,75.80
2023-04-18T07:27:11.062Z,75.66
2023-04-18T07:28:11.064Z,75.60
2023-04-18T07:29:11.132Z,75.60
2023-04-18T07:30:11.078Z,75.49
2023-04-18T07:31:11.117Z,75.34
2023-04-18T07:32:11.069Z,75.23
2023-04-18T07:33:11.061Z,75.31
2023-04-18T07:34:11.058Z,75.25
2023-04-18T07:35:11.076Z,75.34
2023-04-18T07:36:11.059Z,75.38
2023-04-18T07:37:12.545Z,75.18
2023-04-18T07:38:11.069Z,75.25
2023-04-18T07:39:11.065Z,75.38
2023-04-18T07:40:11.060Z,75.20
2023-04-18T07:41:11.065Z,75.20
2023-04-18T07:42:11.068Z,74.91
2023-04-18T07:43:11.061Z,75.14
2023-04-18T07:44:11.234Z,75.06
2023-04-18T07:45:11.069Z,75.11
2023-04-18T07:46:11.100Z,74.87
2023-04-18T07:47:11.122Z,74.54
2023-04-18T07:48:11.143Z,74.22
2023-04-18T07:49:11.186Z,73.79
2023-04-18T07:50:11.081Z,73.60
2023-04-18T07:51:11.075Z,73.69
2023-04-18T07:52:11.071Z,73.29
2023-04-18T07:53:11.072Z,73.32
2023-04-18T07:54:11.074Z,73.06
2023-04-18T07:55:11.066Z,72.76
2023-04-18T07:56:11.070Z,72.74
2023-04-18T07:57:11.077Z,73.03
2023-04-18T07:58:11.066Z,72.92
2023-04-18T07:59:11.079Z,72.93
2023-04-18T08:00:11.072Z,72.84
2023-04-18T08:01:11.069Z,72.80
2023-04-18T08:02:11.114Z,72.73
2023-04-18T08:03:11.259Z,72.71
2023-04-18T08:04:11.148Z,72.60
2023-04-18T08:05:11.210Z,72.51
2023-04-18T08:06:11.074Z,72.59
2023-04-18T08:07:11.076Z,72.54
2023-04-18T08:08:11.070Z,72.51
2023-04-18T08:09:11.128Z,72.14
2023-04-18T08:10:11.088Z,72.09
2023-04-18T08:11:11.068Z,72.03
2023-04-18T08:12:11.070Z,71.58
2023-04-18T08:13:11.076Z,71.31
2023-04-18T08:14:11.080Z,71.04
2023-04-18T08:15:11.096Z,71.09
2023-04-18T08:16:11.144Z,70.72
2023-04-18T08:17:11.069Z,70.28
2023-04-18T08:18:11.070Z,69.71
2023-04-18T08:19:11.228Z,69.50
2023-04-18T08:20:11.071Z,69.06
2023-04-18T08:21:11.068Z,68.91
2023-04-18T08:22:11.079Z,68.48
2023-04-18T08:23:13.083Z,68.33
2023-04-18T08:24:11.080Z,68.05
2023-04-18T08:25:11.072Z,68.00
2023-04-18T08:26:11.075Z,67.65
2023-04-18T08:27:11.089Z,67.46
2023-04-18T08:28:11.069Z,67.19
2023-04-18T08:29:11.185Z,66.98
2023-04-18T08:30:11.078Z,66.76
2023-04-18T08:31:13.090Z,66.51
2023-04-18T08:32:11.162Z,66.50
2023-04-18T08:33:11.101Z,66.38
2023-04-18T08:34:11.074Z,66.25
2023-04-18T08:35:11.077Z,66.14
2023-04-18T08:36:11.073Z,65.89
2023-04-18T08:37:11.089Z,65.91
2023-04-18T08:38:11.080Z,65.70
2023-04-18T08:39:11.208Z,65.71
2023-04-18T08:40:11.082Z,65.53
2023-04-18T08:41:11.079Z,65.40
2023-04-18T08:42:11.086Z,65.07
2023-04-18T08:43:11.083Z,65.26
2023-04-18T08:44:11.159Z,64.94
2023-04-18T08:45:11.074Z,64.69
2023-04-18T08:46:11.139Z,64.49
2023-04-18T08:47:11.079Z,64.09
2023-04-18T08:48:13.092Z,64.08
2023-04-18T08:49:11.991Z,64.14
2023-04-18T08:50:11.077Z,64.00
2023-04-18T08:51:11.073Z,63.98
2023-04-18T08:52:14.095Z,63.96
2023-04-18T08:53:11.074Z,63.84
2023-04-18T08:54:11.078Z,63.42
2023-04-18T08:55:11.072Z,63.38
2023-04-18T08:56:14.068Z,63.69
2023-04-18T08:57:11.080Z,63.79
2023-04-18T08:58:11.074Z,63.63
2023-04-18T08:59:11.075Z,63.72
2023-04-18T09:00:13.080Z,63.80
2023-04-18T09:01:11.121Z,63.95
2023-04-18T09:02:11.105Z,63.69
2023-04-18T09:03:13.107Z,63.73
2023-04-18T09:04:11.094Z,63.68
2023-04-18T09:05:15.129Z,63.42
2023-04-18T09:06:14.116Z,63.22
2023-04-18T09:07:15.070Z,63.18
2023-04-18T09:08:19.068Z,62.42
2023-04-18T09:09:11.237Z,63.01
2023-04-18T09:10:11.089Z,62.39
2023-04-18T09:11:19.072Z,62.14
2023-04-18T09:12:11.070Z,61.62
2023-04-18T09:13:11.074Z,61.26
2023-04-18T09:14:15.198Z,60.93
2023-04-18T09:15:15.098Z,61.01
2023-04-18T09:16:11.096Z,60.86
2023-04-18T09:17:11.084Z,60.47
2023-04-18T09:18:11.107Z,60.06
2023-04-18T09:19:14.610Z,59.20
2023-04-18T09:20:11.075Z,60.14
2023-04-18T09:21:17.085Z,60.04
2023-04-18T09:22:12.076Z,60.16
2023-04-18T09:23:11.490Z,60.29
2023-04-18T09:24:19.093Z,60.32
2023-04-18T09:25:12.077Z,60.11
2023-04-18T09:26:11.083Z,60.19
2023-04-18T09:27:13.080Z,60.17
2023-04-18T09:28:19.084Z,60.16
2023-04-18T09:29:11.160Z,59.76
2023-04-18T09:30:11.083Z,59.63
2023-04-18T09:31:11.140Z,59.42
2023-04-18T09:32:11.082Z,59.22
2023-04-18T09:33:11.077Z,58.56
2023-04-18T09:34:19.089Z,58.88
2023-04-18T09:35:11.087Z,58.76
2023-04-18T09:36:20.147Z,58.58
2023-04-18T09:37:13.138Z,58.82
2023-04-18T09:38:11.088Z,58.85
2023-04-18T09:39:15.231Z,59.04
2023-04-18T09:40:17.084Z,58.87
2023-04-18T09:41:11.108Z,58.82
2023-04-18T09:42:11.090Z,58.35
2023-04-18T09:43:17.103Z,57.78
2023-04-18T09:44:14.503Z,57.93
2023-04-18T09:45:11.090Z,57.83
2023-04-18T09:46:11.158Z,57.56
2023-04-18T09:47:11.082Z,57.30
2023-04-18T09:48:11.088Z,57.67
2023-04-18T09:49:11.385Z,57.86
2023-04-18T09:50:11.086Z,57.90
2023-04-18T09:51:11.116Z,57.54
2023-04-18T09:52:11.092Z,57.10
2023-04-18T09:53:11.086Z,56.56
2023-04-18T09:54:14.260Z,56.13
2023-04-18T09:55:11.085Z,56.08
2023-04-18T09:56:19.085Z,55.87
2023-04-18T09:57:12.083Z,55.67
2023-04-18T09:58:12.083Z,55.28
2023-04-18T09:59:11.105Z,54.96
2023-04-18T10:00:22.068Z,55.18
2023-04-18T10:01:11.101Z,54.67
2023-04-18T10:02:15.096Z,54.36
2023-04-18T10:03:11.134Z,54.56
2023-04-18T10:04:12.387Z,53.47
2023-04-18T10:05:11.096Z,54.30
2023-04-18T10:06:11.079Z,54.35
2023-04-18T10:07:11.061Z,54.42
2023-04-18T10:08:11.064Z,53.59
2023-04-18T10:09:11.131Z,53.41
2023-04-18T10:10:11.074Z,53.38
2023-04-18T10:11:11.069Z,53.26
2023-04-18T10:12:11.062Z,53.17
2023-04-18T10:13:11.126Z,53.08
2023-04-18T10:14:12.331Z,53.15
2023-04-18T10:15:11.064Z,53.41
2023-04-18T10:16:11.150Z,53.36
2023-04-18T10:17:11.074Z,53.33
2023-04-18T10:18:16.072Z,53.47
2023-04-18T10:19:19.069Z,53.37
2023-04-18T10:20:15.065Z,53.31
2023-04-18T10:21:11.072Z,52.76
2023-04-18T10:22:11.061Z,52.39
2023-04-18T10:23:19.065Z,50.52
2023-04-18T10:24:19.071Z,51.26
2023-04-18T10:25:11.065Z,51.13
2023-04-18T10:26:11.129Z,51.33
2023-04-18T10:27:11.063Z,50.74
2023-04-18T10:28:11.064Z,50.97
2023-04-18T10:29:11.203Z,51.12
2023-04-18T10:30:11.080Z,51.32
2023-04-18T10:31:11.081Z,51.87
2023-04-18T10:32:11.067Z,51.95
2023-04-18T10:33:29.351Z,52.00
2023-04-18T10:34:14.061Z,51.72
2023-04-18T10:35:11.080Z,52.41
2023-04-18T10:36:15.076Z,51.79
2023-04-18T10:37:11.070Z,50.99
2023-04-18T10:38:16.078Z,51.76
2023-04-18T10:39:19.073Z,51.76
2023-04-18T10:40:11.101Z,51.45
2023-04-18T10:41:18.092Z,51.70
2023-04-18T10:42:11.071Z,51.47
2023-04-18T10:43:11.070Z,51.12
2023-04-18T10:44:19.097Z,50.90
2023-04-18T10:45:19.078Z,50.66
2023-04-18T10:46:27.972Z,50.48
2023-04-18T10:47:20.119Z,50.19
2023-04-18T10:48:19.083Z,50.04
2023-04-18T10:49:21.946Z,50.10
2023-04-18T10:50:11.081Z,49.51
2023-04-18T10:51:15.087Z,50.40
2023-04-18T10:52:12.936Z,50.20
2023-04-18T10:53:11.071Z,49.54
2023-04-18T10:54:12.163Z,49.40
2023-04-18T10:55:18.085Z,48.69
2023-04-18T10:56:13.078Z,48.06
2023-04-18T10:57:11.084Z,47.95
2023-04-18T10:58:11.073Z,48.06
2023-04-18T10:59:11.109Z,47.72
2023-04-18T11:00:11.100Z,47.84
2023-04-18T11:01:14.094Z,47.59
2023-04-18T11:02:19.111Z,48.67
2023-04-18T11:03:11.285Z,48.64
2023-04-18T11:04:13.704Z,48.64
2023-04-18T11:05:11.074Z,49.15
2023-04-18T11:06:11.082Z,49.18
2023-04-18T11:07:11.085Z,49.76
2023-04-18T11:08:19.073Z,49.85
2023-04-18T11:09:13.083Z,49.37
2023-04-18T11:10:11.072Z,49.04
2023-04-18T11:11:13.072Z,49.39
2023-04-18T11:12:11.078Z,49.26
2023-04-18T11:13:11.080Z,49.21
2023-04-18T11:14:11.074Z,49.12
2023-04-18T11:15:13.087Z,48.84
2023-04-18T11:16:15.133Z,49.05
2023-04-18T11:17:19.075Z,48.69
2023-04-18T11:18:11.109Z,48.58
2023-04-18T11:19:17.090Z,48.32
2023-04-18T11:20:13.077Z,48.17
2023-04-18T11:21:11.074Z,48.17
2023-04-18T11:22:11.076Z,48.68
2023-04-18T11:23:17.082Z,48.46
2023-04-18T11:24:11.082Z,48.46
2023-04-18T11:25:11.079Z,48.86
2023-04-18T11:26:11.097Z,49.29
2023-04-18T11:27:11.084Z,49.14
2023-04-18T11:28:11.074Z,48.68
2023-04-18T11:29:11.082Z,48.29
2023-04-18T11:30:11.085Z,48.06
2023-04-18T11:31:11.073Z,47.84
2023-04-18T11:32:11.110Z,47.99
2023-04-18T11:33:13.117Z,47.88
2023-04-18T11:34:11.166Z,47.96
2023-04-18T11:35:12.080Z,47.74
2023-04-18T11:36:11.080Z,47.28
2023-04-18T11:37:11.079Z,47.03
2023-04-18T11:38:12.078Z,47.71
2023-04-18T11:39:11.083Z,47.57
2023-04-18T11:40:12.073Z,47.45
2023-04-18T11:41:15.083Z,47.14
2023-04-18T11:42:11.108Z,47.18
2023-04-18T11:43:11.076Z,47.37
2023-04-18T11:44:11.133Z,47.38
2023-04-18T11:45:15.086Z,46.69
2023-04-18T11:46:11.083Z,46.12
2023-04-18T11:47:19.120Z,46.42
2023-04-18T11:48:11.077Z,46.40
2023-04-18T11:49:15.081Z,45.78
2023-04-18T11:50:11.079Z,45.51
2023-04-18T11:51:19.080Z,45.21
2023-04-18T11:52:13.082Z,44.29
2023-04-18T11:53:11.085Z,44.04
2023-04-18T11:54:19.077Z,43.53
2023-04-18T11:55:21.090Z,43.77
2023-04-18T11:56:12.089Z,42.37
2023-04-18T11:57:19.077Z,42.39
2023-04-18T11:58:11.087Z,42.92
2023-04-18T11:59:11.092Z,42.00
2023-04-18T12:00:13.091Z,43.34
2023-04-18T12:01:19.086Z,43.81
2023-04-18T12:03:15.205Z,39.89
2023-04-18T12:04:11.285Z,39.91
2023-04-18T12:05:11.654Z,39.05
2023-04-18T12:06:11.238Z,37.57
2023-04-18T12:07:11.082Z,38.09
2023-04-18T12:08:13.093Z,38.05
2023-04-18T12:09:14.084Z,37.60
2023-04-18T12:10:15.107Z,37.44
2023-04-18T12:11:11.079Z,37.86
2023-04-18T12:12:11.081Z,37.49
2023-04-18T12:13:11.084Z,37.68
2023-04-18T12:14:19.083Z,37.75
2023-04-18T12:15:15.098Z,37.39
2023-04-18T12:16:11.101Z,37.63
2023-04-18T12:17:12.084Z,37.70
2023-04-18T12:18:12.117Z,37.53
2023-04-18T12:19:11.085Z,37.35
2023-04-18T12:20:11.086Z,36.55
2023-04-18T12:21:11.082Z,37.02
2023-04-18T12:22:11.083Z,37.11
2023-04-18T12:23:11.084Z,37.03
2023-04-18T12:24:15.326Z,36.70
2023-04-18T12:25:19.081Z,36.84
2023-04-18T12:26:13.090Z,36.25
2023-04-18T12:27:11.086Z,36.53
2023-04-18T12:28:15.099Z,36.13
2023-04-18T12:29:11.156Z,36.53
2023-04-18T12:30:11.085Z,35.73
2023-04-18T12:31:12.109Z,35.95
2023-04-18T12:32:11.095Z,36.14
2023-04-18T12:33:11.106Z,35.89
2023-04-18T12:34:11.132Z,36.22
2023-04-18T12:35:11.083Z,36.25
2023-04-18T12:36:12.085Z,36.03
2023-04-18T12:37:11.086Z,35.98
2023-04-18T12:38:11.086Z,35.66
2023-04-18T12:39:11.084Z,35.04
2023-04-18T12:40:11.094Z,35.29
2023-04-18T12:41:11.082Z,35.44
2023-04-18T12:42:11.133Z,35.20
2023-04-18T12:43:11.086Z,35.42
2023-04-18T12:44:11.206Z,35.55
2023-04-18T12:45:11.101Z,35.22
2023-04-18T12:46:11.141Z,35.57
2023-04-18T12:47:11.252Z,35.16
2023-04-18T12:48:11.083Z,34.97
2023-04-18T12:49:11.083Z,35.06
2023-04-18T12:50:11.432Z,34.72
2023-04-18T12:51:11.085Z,35.06
2023-04-18T12:52:11.141Z,35.17
2023-04-18T12:53:11.082Z,35.00
2023-04-18T12:54:11.170Z,34.47
2023-04-18T12:55:11.090Z,35.26
2023-04-18T12:56:11.097Z,35.15
2023-04-18T12:57:11.086Z,35.14
2023-04-18T12:58:11.080Z,35.53
2023-04-18T12:59:11.121Z,34.75
2023-04-18T13:00:15.099Z,34.93